This is the latest recevied weather packets stored in our database for station/object AA6HF. If no packets are shown the sender has not sent any weather packets the latest 1 day(s).
| Time | Temp. | Humidity | Pressure | Rain* | Wind** | Luminosity | Snow |
|---|---|---|---|---|---|---|---|
| 1836274594 | 29.44° C | 45% | 1008.8 hPa | 0 mm | 0 m/s | - | - |
| 1836274444 | 28.89° C | 46% | 1008.9 hPa | 0 mm | 0 m/s | - | - |
| 1836274294 | 30° C | 44% | 1008.7 hPa | 0 mm | 0.45 m/s, 340° | - | - |
| 1836274144 | 29.44° C | 45% | 1008.8 hPa | 0 mm | 0 m/s | - | - |
| 1836273994 | 30° C | 44% | 1008.7 hPa | 0 mm | 0.89 m/s, 340° | - | - |
| 1778051122 | 16.67° C | 51% | 1012.3 hPa | 0 mm | 0 m/s | - | - |
| 1778050822 | 16.67° C | 50% | 1012.3 hPa | 0 mm | 0 m/s | - | - |
| 1778050522 | 16.67° C | 49% | 1012.2 hPa | 0 mm | 0 m/s | - | - |
| 1778050222 | 16.67° C | 49% | 1012.1 hPa | 0 mm | 0 m/s | - | - |
| 1778049922 | 16.67° C | 49% | 1012 hPa | 0 mm | 0 m/s | - | - |
| 1778049622 | 16.67° C | 48% | 1011.9 hPa | 0 mm | 0 m/s | - | - |
| 1778049323 | 16.67° C | 48% | 1012 hPa | 0 mm | 0 m/s | - | - |
| 1778049023 | 17.22° C | 47% | 1011.8 hPa | 0 mm | 0 m/s | - | - |
| 1778048723 | 17.22° C | 46% | 1011.8 hPa | 0 mm | 0 m/s | - | - |
| 1778048423 | 17.22° C | 45% | 1011.8 hPa | 0 mm | 0 m/s | - | - |
| 1778048123 | 17.78° C | 43% | 1011.7 hPa | 0 mm | 0 m/s | - | - |
| 1778047823 | 17.78° C | 43% | 1011.6 hPa | 0 mm | 0 m/s | - | - |
| 1778047523 | 17.78° C | 43% | 1011.6 hPa | 0 mm | 0 m/s | - | - |
| 1778047223 | 17.78° C | 43% | 1011.6 hPa | 0 mm | 0 m/s | - | - |
| 1778046923 | 17.78° C | 43% | 1011.5 hPa | 0 mm | 0 m/s | - | - |
| 1778046623 | 17.78° C | 44% | 1011.4 hPa | 0 mm | 0 m/s | - | - |
| 1778046323 | 17.78° C | 44% | 1011.4 hPa | 0 mm | 0 m/s | - | - |
| 1778046023 | 17.78° C | 43% | 1011.3 hPa | 0 mm | 0 m/s | - | - |
| 1778045723 | 18.33° C | 43% | 1011.3 hPa | 0 mm | 0 m/s | - | - |
| 1778045423 | 17.78° C | 43% | 1011.2 hPa | 0 mm | 0 m/s | - | - |
* Rain latest hour (hover to see other rain measurements)
** Current wind speed in m/s (hover to see current wind gust speed)